sensor_id;sensor_type;location;lat;lon;timestamp;P1;durP1;ratioP1;P2;durP2;ratioP2
41323;SDS011;27073;51.128;4.220;2023-02-18T00:02:10;22.15;;;18.02;;
41323;SDS011;27073;51.128;4.220;2023-02-18T00:04:36;21.88;;;17.17;;
41323;SDS011;27073;51.128;4.220;2023-02-18T00:07:02;23.33;;;18.25;;
41323;SDS011;27073;51.128;4.220;2023-02-18T00:09:27;21.13;;;17.30;;
41323;SDS011;27073;51.128;4.220;2023-02-18T00:11:53;21.30;;;17.45;;
41323;SDS011;27073;51.128;4.220;2023-02-18T00:14:19;20.25;;;16.80;;
41323;SDS011;27073;51.128;4.220;2023-02-18T00:16:44;19.23;;;16.05;;
41323;SDS011;27073;51.128;4.220;2023-02-18T00:19:12;20.00;;;16.20;;
41323;SDS011;27073;51.128;4.220;2023-02-18T00:21:40;17.35;;;15.13;;
41323;SDS011;27073;51.128;4.220;2023-02-18T00:24:06;16.25;;;14.55;;
41323;SDS011;27073;51.128;4.220;2023-02-18T00:26:32;15.43;;;13.75;;
41323;SDS011;27073;51.128;4.220;2023-02-18T00:28:58;18.52;;;14.95;;
41323;SDS011;27073;51.128;4.220;2023-02-18T00:31:29;15.73;;;14.02;;
41323;SDS011;27073;51.128;4.220;2023-02-18T00:33:59;15.52;;;13.80;;
41323;SDS011;27073;51.128;4.220;2023-02-18T00:36:27;18.75;;;14.55;;
41323;SDS011;27073;51.128;4.220;2023-02-18T00:38:57;15.60;;;13.95;;
41323;SDS011;27073;51.128;4.220;2023-02-18T00:43:51;17.65;;;14.65;;
41323;SDS011;27073;51.128;4.220;2023-02-18T00:46:18;15.18;;;13.57;;
41323;SDS011;27073;51.128;4.220;2023-02-18T00:48:44;14.80;;;13.13;;
41323;SDS011;27073;51.128;4.220;2023-02-18T00:51:10;19.05;;;15.07;;
41323;SDS011;27073;51.128;4.220;2023-02-18T00:53:36;15.57;;;14.07;;
41323;SDS011;27073;51.128;4.220;2023-02-18T00:56:02;16.90;;;15.15;;
41323;SDS011;27073;51.128;4.220;2023-02-18T00:58:29;14.65;;;13.10;;
41323;SDS011;27073;51.128;4.220;2023-02-18T01:00:55;15.20;;;13.73;;
41323;SDS011;27073;51.128;4.220;2023-02-18T01:03:20;14.15;;;12.65;;
41323;SDS011;27073;51.128;4.220;2023-02-18T01:05:48;15.65;;;12.90;;
41323;SDS011;27073;51.128;4.220;2023-02-18T01:08:15;14.95;;;13.45;;
41323;SDS011;27073;51.128;4.220;2023-02-18T01:10:42;14.48;;;11.95;;
41323;SDS011;27073;51.128;4.220;2023-02-18T01:13:10;15.52;;;12.48;;
41323;SDS011;27073;51.128;4.220;2023-02-18T01:15:37;15.75;;;12.73;;
41323;SDS011;27073;51.128;4.220;2023-02-18T01:18:04;16.60;;;12.57;;
41323;SDS011;27073;51.128;4.220;2023-02-18T01:20:36;13.02;;;11.60;;
41323;SDS011;27073;51.128;4.220;2023-02-18T01:23:05;14.55;;;12.00;;
41323;SDS011;27073;51.128;4.220;2023-02-18T01:25:30;17.35;;;13.75;;
41323;SDS011;27073;51.128;4.220;2023-02-18T01:27:57;16.13;;;12.98;;
41323;SDS011;27073;51.128;4.220;2023-02-18T01:30:23;16.20;;;13.18;;
41323;SDS011;27073;51.128;4.220;2023-02-18T01:32:49;18.00;;;13.27;;
41323;SDS011;27073;51.128;4.220;2023-02-18T01:35:15;15.07;;;12.23;;
41323;SDS011;27073;51.128;4.220;2023-02-18T01:37:43;16.65;;;13.25;;
41323;SDS011;27073;51.128;4.220;2023-02-18T01:40:13;16.05;;;12.95;;
41323;SDS011;27073;51.128;4.220;2023-02-18T01:42:41;14.15;;;12.18;;
41323;SDS011;27073;51.128;4.220;2023-02-18T01:47:57;15.45;;;11.90;;
41323;SDS011;27073;51.128;4.220;2023-02-18T01:50:36;15.80;;;12.85;;
41323;SDS011;27073;51.128;4.220;2023-02-18T01:53:05;17.10;;;12.32;;
41323;SDS011;27073;51.128;4.220;2023-02-18T01:55:32;14.10;;;11.98;;
41323;SDS011;27073;51.128;4.220;2023-02-18T01:57:59;15.95;;;12.70;;
41323;SDS011;27073;51.128;4.220;2023-02-18T02:00:27;17.55;;;13.27;;
41323;SDS011;27073;51.128;4.220;2023-02-18T02:02:53;16.55;;;12.80;;
41323;SDS011;27073;51.128;4.220;2023-02-18T02:05:19;14.45;;;11.15;;
41323;SDS011;27073;51.128;4.220;2023-02-18T02:07:46;15.23;;;12.18;;
41323;SDS011;27073;51.128;4.220;2023-02-18T02:10:15;13.93;;;12.48;;
41323;SDS011;27073;51.128;4.220;2023-02-18T02:12:58;13.30;;;11.85;;
41323;SDS011;27073;51.128;4.220;2023-02-18T02:15:46;15.05;;;12.90;;
41323;SDS011;27073;51.128;4.220;2023-02-18T02:29:16;12.63;;;10.32;;
41323;SDS011;27073;51.128;4.220;2023-02-18T02:40:06;9.13;;;8.20;;
41323;SDS011;27073;51.128;4.220;2023-02-18T02:43:03;11.90;;;9.00;;
41323;SDS011;27073;51.128;4.220;2023-02-18T02:45:47;10.35;;;8.82;;
41323;SDS011;27073;51.128;4.220;2023-02-18T02:53:40;10.38;;;8.70;;
41323;SDS011;27073;51.128;4.220;2023-02-18T02:56:21;9.73;;;8.25;;
41323;SDS011;27073;51.128;4.220;2023-02-18T02:58:57;7.93;;;7.13;;
41323;SDS011;27073;51.128;4.220;2023-02-18T03:10:16;8.60;;;7.68;;
41323;SDS011;27073;51.128;4.220;2023-02-18T03:18:16;7.78;;;6.90;;
41323;SDS011;27073;51.128;4.220;2023-02-18T03:20:55;8.93;;;8.02;;
41323;SDS011;27073;51.128;4.220;2023-02-18T03:23:26;5.80;;;4.85;;
41323;SDS011;27073;51.128;4.220;2023-02-18T03:25:56;10.07;;;7.00;;
41323;SDS011;27073;51.128;4.220;2023-02-18T03:28:24;7.07;;;6.38;;
41323;SDS011;27073;51.128;4.220;2023-02-18T03:30:58;8.63;;;6.85;;
41323;SDS011;27073;51.128;4.220;2023-02-18T03:34:02;6.78;;;6.10;;
41323;SDS011;27073;51.128;4.220;2023-02-18T03:36:25;6.30;;;5.70;;
41323;SDS011;27073;51.128;4.220;2023-02-18T03:38:53;6.68;;;5.45;;
41323;SDS011;27073;51.128;4.220;2023-02-18T03:41:23;6.32;;;5.72;;
41323;SDS011;27073;51.128;4.220;2023-02-18T03:43:50;6.45;;;5.85;;
41323;SDS011;27073;51.128;4.220;2023-02-18T03:46:26;5.78;;;5.18;;
41323;SDS011;27073;51.128;4.220;2023-02-18T03:48:53;6.35;;;5.70;;
41323;SDS011;27073;51.128;4.220;2023-02-18T03:51:19;5.95;;;4.88;;
41323;SDS011;27073;51.128;4.220;2023-02-18T03:53:45;6.40;;;4.85;;
41323;SDS011;27073;51.128;4.220;2023-02-18T03:56:12;5.30;;;4.70;;
41323;SDS011;27073;51.128;4.220;2023-02-18T03:58:37;5.28;;;4.40;;
41323;SDS011;27073;51.128;4.220;2023-02-18T04:01:03;5.93;;;4.65;;
41323;SDS011;27073;51.128;4.220;2023-02-18T04:03:29;4.75;;;4.28;;
41323;SDS011;27073;51.128;4.220;2023-02-18T04:05:55;4.88;;;3.92;;
41323;SDS011;27073;51.128;4.220;2023-02-18T04:08:21;5.05;;;4.22;;
41323;SDS011;27073;51.128;4.220;2023-02-18T04:10:46;5.47;;;4.25;;
41323;SDS011;27073;51.128;4.220;2023-02-18T04:13:12;4.78;;;4.35;;
41323;SDS011;27073;51.128;4.220;2023-02-18T04:15:38;6.53;;;5.57;;
41323;SDS011;27073;51.128;4.220;2023-02-18T04:18:03;5.53;;;4.82;;
41323;SDS011;27073;51.128;4.220;2023-02-18T04:20:31;6.22;;;5.30;;
41323;SDS011;27073;51.128;4.220;2023-02-18T04:22:57;5.60;;;4.53;;
41323;SDS011;27073;51.128;4.220;2023-02-18T04:25:22;5.22;;;4.40;;
41323;SDS011;27073;51.128;4.220;2023-02-18T04:27:49;4.88;;;4.03;;
41323;SDS011;27073;51.128;4.220;2023-02-18T04:30:15;5.18;;;4.50;;
41323;SDS011;27073;51.128;4.220;2023-02-18T04:32:40;5.65;;;5.07;;
41323;SDS011;27073;51.128;4.220;2023-02-18T04:35:06;5.25;;;4.75;;
41323;SDS011;27073;51.128;4.220;2023-02-18T04:37:32;5.43;;;4.63;;
41323;SDS011;27073;51.128;4.220;2023-02-18T04:39:58;5.28;;;4.78;;
41323;SDS011;27073;51.128;4.220;2023-02-18T04:42:23;4.75;;;4.18;;
41323;SDS011;27073;51.128;4.220;2023-02-18T04:44:49;5.38;;;4.07;;
41323;SDS011;27073;51.128;4.220;2023-02-18T04:47:14;4.07;;;3.45;;
41323;SDS011;27073;51.128;4.220;2023-02-18T04:49:40;3.50;;;3.15;;
41323;SDS011;27073;51.128;4.220;2023-02-18T04:52:06;5.05;;;3.05;;
41323;SDS011;27073;51.128;4.220;2023-02-18T04:54:31;5.93;;;3.97;;
41323;SDS011;27073;51.128;4.220;2023-02-18T04:56:57;4.47;;;4.07;;
41323;SDS011;27073;51.128;4.220;2023-02-18T04:59:23;5.00;;;4.05;;
41323;SDS011;27073;51.128;4.220;2023-02-18T05:01:48;4.57;;;4.05;;
41323;SDS011;27073;51.128;4.220;2023-02-18T05:04:14;4.10;;;3.70;;
41323;SDS011;27073;51.128;4.220;2023-02-18T05:06:41;6.28;;;4.13;;
41323;SDS011;27073;51.128;4.220;2023-02-18T05:09:08;5.20;;;4.53;;
41323;SDS011;27073;51.128;4.220;2023-02-18T05:11:34;5.50;;;4.88;;
41323;SDS011;27073;51.128;4.220;2023-02-18T05:14:00;5.65;;;4.55;;
41323;SDS011;27073;51.128;4.220;2023-02-18T05:16:25;5.55;;;4.95;;
41323;SDS011;27073;51.128;4.220;2023-02-18T05:18:51;5.38;;;4.88;;
41323;SDS011;27073;51.128;4.220;2023-02-18T05:21:17;6.63;;;5.40;;
41323;SDS011;27073;51.128;4.220;2023-02-18T05:23:42;6.03;;;5.35;;
41323;SDS011;27073;51.128;4.220;2023-02-18T05:26:08;6.50;;;4.85;;
41323;SDS011;27073;51.128;4.220;2023-02-18T05:28:34;5.35;;;4.85;;
41323;SDS011;27073;51.128;4.220;2023-02-18T05:31:00;6.80;;;4.68;;
41323;SDS011;27073;51.128;4.220;2023-02-18T05:33:26;5.35;;;4.80;;
41323;SDS011;27073;51.128;4.220;2023-02-18T05:35:51;5.57;;;4.93;;
41323;SDS011;27073;51.128;4.220;2023-02-18T05:38:17;6.63;;;5.20;;
41323;SDS011;27073;51.128;4.220;2023-02-18T05:40:43;6.13;;;5.53;;
41323;SDS011;27073;51.128;4.220;2023-02-18T05:43:09;7.15;;;5.45;;
41323;SDS011;27073;51.128;4.220;2023-02-18T05:45:34;10.80;;;6.03;;
41323;SDS011;27073;51.128;4.220;2023-02-18T05:48:00;9.63;;;5.15;;
41323;SDS011;27073;51.128;4.220;2023-02-18T05:50:26;6.20;;;3.03;;
41323;SDS011;27073;51.128;4.220;2023-02-18T05:52:52;10.20;;;3.85;;
41323;SDS011;27073;51.128;4.220;2023-02-18T05:55:18;5.22;;;3.63;;
41323;SDS011;27073;51.128;4.220;2023-02-18T05:57:43;6.28;;;2.78;;
41323;SDS011;27073;51.128;4.220;2023-02-18T06:00:09;10.50;;;3.20;;
41323;SDS011;27073;51.128;4.220;2023-02-18T06:02:36;9.68;;;2.80;;
41323;SDS011;27073;51.128;4.220;2023-02-18T06:05:02;9.68;;;3.03;;
41323;SDS011;27073;51.128;4.220;2023-02-18T06:07:28;10.43;;;3.50;;
41323;SDS011;27073;51.128;4.220;2023-02-18T06:09:54;10.70;;;2.28;;
41323;SDS011;27073;51.128;4.220;2023-02-18T06:12:20;10.15;;;3.35;;
41323;SDS011;27073;51.128;4.220;2023-02-18T06:14:46;10.63;;;2.33;;
41323;SDS011;27073;51.128;4.220;2023-02-18T06:17:12;13.23;;;2.35;;
41323;SDS011;27073;51.128;4.220;2023-02-18T06:19:38;6.60;;;1.73;;
41323;SDS011;27073;51.128;4.220;2023-02-18T06:22:05;11.68;;;3.45;;
41323;SDS011;27073;51.128;4.220;2023-02-18T06:24:31;13.35;;;2.53;;
41323;SDS011;27073;51.128;4.220;2023-02-18T06:26:58;11.68;;;2.80;;
41323;SDS011;27073;51.128;4.220;2023-02-18T06:29:23;13.30;;;2.80;;
41323;SDS011;27073;51.128;4.220;2023-02-18T06:31:49;7.82;;;2.72;;
41323;SDS011;27073;51.128;4.220;2023-02-18T06:34:15;13.07;;;3.28;;
41323;SDS011;27073;51.128;4.220;2023-02-18T06:36:41;10.48;;;3.03;;
41323;SDS011;27073;51.128;4.220;2023-02-18T06:39:07;15.43;;;2.75;;
41323;SDS011;27073;51.128;4.220;2023-02-18T06:41:33;16.00;;;2.83;;
41323;SDS011;27073;51.128;4.220;2023-02-18T06:43:58;16.92;;;3.50;;
41323;SDS011;27073;51.128;4.220;2023-02-18T06:46:24;17.50;;;3.63;;
41323;SDS011;27073;51.128;4.220;2023-02-18T06:48:50;15.70;;;3.22;;
41323;SDS011;27073;51.128;4.220;2023-02-18T06:51:16;20.30;;;3.85;;
41323;SDS011;27073;51.128;4.220;2023-02-18T06:53:43;11.80;;;2.95;;
41323;SDS011;27073;51.128;4.220;2023-02-18T06:56:09;8.23;;;2.13;;
41323;SDS011;27073;51.128;4.220;2023-02-18T06:58:35;10.05;;;2.08;;
41323;SDS011;27073;51.128;4.220;2023-02-18T07:01:02;12.23;;;3.03;;
41323;SDS011;27073;51.128;4.220;2023-02-18T07:03:27;12.43;;;2.22;;
41323;SDS011;27073;51.128;4.220;2023-02-18T07:05:53;9.30;;;2.35;;
41323;SDS011;27073;51.128;4.220;2023-02-18T07:08:19;6.57;;;1.85;;
41323;SDS011;27073;51.128;4.220;2023-02-18T07:10:45;10.88;;;2.03;;
41323;SDS011;27073;51.128;4.220;2023-02-18T07:13:11;7.25;;;1.88;;
41323;SDS011;27073;51.128;4.220;2023-02-18T07:15:37;8.98;;;2.10;;
41323;SDS011;27073;51.128;4.220;2023-02-18T07:18:02;14.10;;;2.60;;
41323;SDS011;27073;51.128;4.220;2023-02-18T07:20:28;9.70;;;2.90;;
41323;SDS011;27073;51.128;4.220;2023-02-18T07:22:54;12.60;;;2.10;;
41323;SDS011;27073;51.128;4.220;2023-02-18T07:25:20;11.45;;;2.92;;
41323;SDS011;27073;51.128;4.220;2023-02-18T07:27:46;9.82;;;1.77;;
41323;SDS011;27073;51.128;4.220;2023-02-18T07:30:12;9.98;;;2.20;;
41323;SDS011;27073;51.128;4.220;2023-02-18T07:32:38;10.40;;;1.80;;
41323;SDS011;27073;51.128;4.220;2023-02-18T07:35:04;12.90;;;2.08;;
41323;SDS011;27073;51.128;4.220;2023-02-18T07:37:30;11.13;;;2.67;;
41323;SDS011;27073;51.128;4.220;2023-02-18T07:39:56;10.40;;;1.55;;
41323;SDS011;27073;51.128;4.220;2023-02-18T07:42:22;9.63;;;2.50;;
41323;SDS011;27073;51.128;4.220;2023-02-18T07:44:48;12.25;;;3.05;;
41323;SDS011;27073;51.128;4.220;2023-02-18T07:47:14;13.23;;;3.00;;
41323;SDS011;27073;51.128;4.220;2023-02-18T07:49:44;10.57;;;2.28;;
41323;SDS011;27073;51.128;4.220;2023-02-18T07:52:10;14.55;;;2.88;;
41323;SDS011;27073;51.128;4.220;2023-02-18T07:54:36;10.48;;;2.08;;
41323;SDS011;27073;51.128;4.220;2023-02-18T07:57:02;8.80;;;1.88;;
41323;SDS011;27073;51.128;4.220;2023-02-18T07:59:28;11.40;;;2.30;;
41323;SDS011;27073;51.128;4.220;2023-02-18T08:01:54;11.00;;;1.70;;
41323;SDS011;27073;51.128;4.220;2023-02-18T08:04:20;6.60;;;1.80;;
41323;SDS011;27073;51.128;4.220;2023-02-18T08:06:46;7.38;;;1.63;;
41323;SDS011;27073;51.128;4.220;2023-02-18T08:09:14;6.97;;;1.38;;
41323;SDS011;27073;51.128;4.220;2023-02-18T08:11:40;10.98;;;2.22;;
41323;SDS011;27073;51.128;4.220;2023-02-18T08:14:06;9.27;;;1.63;;
41323;SDS011;27073;51.128;4.220;2023-02-18T08:16:32;8.95;;;1.58;;
41323;SDS011;27073;51.128;4.220;2023-02-18T08:18:58;7.05;;;2.20;;
41323;SDS011;27073;51.128;4.220;2023-02-18T08:21:25;11.88;;;2.40;;
41323;SDS011;27073;51.128;4.220;2023-02-18T08:23:51;13.75;;;2.72;;
41323;SDS011;27073;51.128;4.220;2023-02-18T08:26:18;4.97;;;1.13;;
41323;SDS011;27073;51.128;4.220;2023-02-18T08:28:45;7.28;;;1.60;;
41323;SDS011;27073;51.128;4.220;2023-02-18T08:31:15;9.43;;;1.73;;
41323;SDS011;27073;51.128;4.220;2023-02-18T08:33:42;9.07;;;1.85;;
41323;SDS011;27073;51.128;4.220;2023-02-18T08:36:08;7.72;;;1.63;;
41323;SDS011;27073;51.128;4.220;2023-02-18T08:38:34;10.80;;;1.38;;
41323;SDS011;27073;51.128;4.220;2023-02-18T08:41:02;5.78;;;1.35;;
41323;SDS011;27073;51.128;4.220;2023-02-18T08:43:29;10.10;;;1.55;;
41323;SDS011;27073;51.128;4.220;2023-02-18T08:45:56;9.43;;;2.00;;
41323;SDS011;27073;51.128;4.220;2023-02-18T08:48:22;7.32;;;1.77;;
41323;SDS011;27073;51.128;4.220;2023-02-18T08:50:48;6.60;;;1.10;;
41323;SDS011;27073;51.128;4.220;2023-02-18T08:53:14;9.50;;;1.70;;
41323;SDS011;27073;51.128;4.220;2023-02-18T08:55:40;9.57;;;2.10;;
41323;SDS011;27073;51.128;4.220;2023-02-18T08:58:06;9.93;;;1.80;;
41323;SDS011;27073;51.128;4.220;2023-02-18T09:00:32;12.98;;;2.40;;
41323;SDS011;27073;51.128;4.220;2023-02-18T09:02:59;9.35;;;2.55;;
41323;SDS011;27073;51.128;4.220;2023-02-18T09:05:27;8.73;;;1.77;;
41323;SDS011;27073;51.128;4.220;2023-02-18T09:07:52;8.82;;;2.50;;
41323;SDS011;27073;51.128;4.220;2023-02-18T09:10:18;7.05;;;1.73;;
41323;SDS011;27073;51.128;4.220;2023-02-18T09:12:44;11.63;;;2.30;;
41323;SDS011;27073;51.128;4.220;2023-02-18T09:15:10;8.48;;;1.85;;
41323;SDS011;27073;51.128;4.220;2023-02-18T09:17:35;11.02;;;1.77;;
41323;SDS011;27073;51.128;4.220;2023-02-18T09:20:02;11.15;;;2.38;;
41323;SDS011;27073;51.128;4.220;2023-02-18T09:22:28;6.35;;;2.13;;
41323;SDS011;27073;51.128;4.220;2023-02-18T09:24:54;7.88;;;2.05;;
41323;SDS011;27073;51.128;4.220;2023-02-18T09:27:20;8.43;;;2.50;;
41323;SDS011;27073;51.128;4.220;2023-02-18T09:29:46;7.82;;;2.35;;
41323;SDS011;27073;51.128;4.220;2023-02-18T09:32:14;8.70;;;1.65;;
41323;SDS011;27073;51.128;4.220;2023-02-18T09:34:42;10.25;;;2.00;;
41323;SDS011;27073;51.128;4.220;2023-02-18T09:37:08;8.77;;;1.63;;
41323;SDS011;27073;51.128;4.220;2023-02-18T09:39:34;11.85;;;1.63;;
41323;SDS011;27073;51.128;4.220;2023-02-18T09:42:01;12.10;;;2.72;;
41323;SDS011;27073;51.128;4.220;2023-02-18T09:44:52;11.60;;;2.35;;
41323;SDS011;27073;51.128;4.220;2023-02-18T09:47:24;12.40;;;2.20;;
41323;SDS011;27073;51.128;4.220;2023-02-18T09:49:59;11.90;;;2.33;;
41323;SDS011;27073;51.128;4.220;2023-02-18T09:52:48;7.20;;;2.20;;
41323;SDS011;27073;51.128;4.220;2023-02-18T09:55:48;7.18;;;1.77;;
41323;SDS011;27073;51.128;4.220;2023-02-18T09:58:13;14.60;;;2.08;;
41323;SDS011;27073;51.128;4.220;2023-02-18T10:00:44;9.32;;;2.00;;
41323;SDS011;27073;51.128;4.220;2023-02-18T10:08:29;4.70;;;1.45;;
41323;SDS011;27073;51.128;4.220;2023-02-18T10:11:00;12.90;;;2.22;;
41323;SDS011;27073;51.128;4.220;2023-02-18T10:13:33;6.32;;;1.40;;
41323;SDS011;27073;51.128;4.220;2023-02-18T10:16:00;11.10;;;2.55;;
41323;SDS011;27073;51.128;4.220;2023-02-18T10:23:38;11.52;;;3.22;;
41323;SDS011;27073;51.128;4.220;2023-02-18T10:26:09;18.60;;;3.73;;
41323;SDS011;27073;51.128;4.220;2023-02-18T10:28:39;14.35;;;2.80;;
41323;SDS011;27073;51.128;4.220;2023-02-18T10:31:09;16.73;;;3.80;;
41323;SDS011;27073;51.128;4.220;2023-02-18T10:33:46;11.57;;;2.88;;
41323;SDS011;27073;51.128;4.220;2023-02-18T10:39:05;8.52;;;2.00;;
41323;SDS011;27073;51.128;4.220;2023-02-18T10:41:56;6.82;;;1.60;;
41323;SDS011;27073;51.128;4.220;2023-02-18T10:50:36;14.63;;;2.70;;
41323;SDS011;27073;51.128;4.220;2023-02-18T10:53:07;11.93;;;2.67;;
41323;SDS011;27073;51.128;4.220;2023-02-18T10:55:39;8.10;;;2.00;;
41323;SDS011;27073;51.128;4.220;2023-02-18T11:00:53;13.70;;;2.70;;
41323;SDS011;27073;51.128;4.220;2023-02-18T11:03:23;10.68;;;2.58;;
41323;SDS011;27073;51.128;4.220;2023-02-18T11:08:47;10.00;;;2.20;;
41323;SDS011;27073;51.128;4.220;2023-02-18T11:11:15;12.20;;;2.50;;
41323;SDS011;27073;51.128;4.220;2023-02-18T11:13:51;12.65;;;3.22;;
41323;SDS011;27073;51.128;4.220;2023-02-18T11:16:17;10.43;;;2.80;;
41323;SDS011;27073;51.128;4.220;2023-02-18T11:19:00;11.85;;;2.60;;
41323;SDS011;27073;51.128;4.220;2023-02-18T11:21:35;15.55;;;2.30;;
41323;SDS011;27073;51.128;4.220;2023-02-18T11:24:06;12.15;;;2.05;;
41323;SDS011;27073;51.128;4.220;2023-02-18T11:26:38;16.83;;;2.78;;
41323;SDS011;27073;51.128;4.220;2023-02-18T11:29:05;13.50;;;2.38;;
41323;SDS011;27073;51.128;4.220;2023-02-18T11:31:41;8.77;;;2.58;;
41323;SDS011;27073;51.128;4.220;2023-02-18T11:34:13;11.48;;;3.42;;
41323;SDS011;27073;51.128;4.220;2023-02-18T11:36:46;15.98;;;3.25;;
41323;SDS011;27073;51.128;4.220;2023-02-18T11:39:16;13.38;;;3.08;;
41323;SDS011;27073;51.128;4.220;2023-02-18T11:41:53;11.45;;;2.08;;
41323;SDS011;27073;51.128;4.220;2023-02-18T11:44:33;10.90;;;2.70;;
41323;SDS011;27073;51.128;4.220;2023-02-18T11:47:05;15.15;;;2.80;;
41323;SDS011;27073;51.128;4.220;2023-02-18T11:49:43;13.38;;;2.60;;
41323;SDS011;27073;51.128;4.220;2023-02-18T11:52:25;14.70;;;2.60;;
41323;SDS011;27073;51.128;4.220;2023-02-18T11:55:01;12.93;;;2.47;;
41323;SDS011;27073;51.128;4.220;2023-02-18T11:57:30;9.25;;;2.28;;
41323;SDS011;27073;51.128;4.220;2023-02-18T11:59:58;18.05;;;3.05;;
41323;SDS011;27073;51.128;4.220;2023-02-18T12:05:04;22.10;;;4.95;;
41323;SDS011;27073;51.128;4.220;2023-02-18T12:07:50;9.55;;;3.45;;
41323;SDS011;27073;51.128;4.220;2023-02-18T12:10:33;7.57;;;2.45;;
41323;SDS011;27073;51.128;4.220;2023-02-18T12:16:07;9.75;;;2.70;;
41323;SDS011;27073;51.128;4.220;2023-02-18T12:21:21;11.35;;;2.83;;
41323;SDS011;27073;51.128;4.220;2023-02-18T12:32:18;14.45;;;2.65;;
41323;SDS011;27073;51.128;4.220;2023-02-18T12:52:30;14.23;;;2.83;;
41323;SDS011;27073;51.128;4.220;2023-02-18T12:57:49;15.95;;;3.05;;
41323;SDS011;27073;51.128;4.220;2023-02-18T13:00:46;11.27;;;3.00;;
41323;SDS011;27073;51.128;4.220;2023-02-18T13:06:29;12.07;;;3.13;;
41323;SDS011;27073;51.128;4.220;2023-02-18T13:09:25;14.38;;;3.17;;
41323;SDS011;27073;51.128;4.220;2023-02-18T13:13:06;11.23;;;3.00;;
41323;SDS011;27073;51.128;4.220;2023-02-18T13:15:20;14.60;;;2.90;;
41323;SDS011;27073;51.128;4.220;2023-02-18T13:17:54;9.13;;;3.08;;
41323;SDS011;27073;51.128;4.220;2023-02-18T13:20:26;11.32;;;3.50;;
41323;SDS011;27073;51.128;4.220;2023-02-18T13:23:16;11.77;;;3.25;;
41323;SDS011;27073;51.128;4.220;2023-02-18T13:25:45;11.05;;;2.90;;
41323;SDS011;27073;51.128;4.220;2023-02-18T13:33:43;10.52;;;3.03;;
41323;SDS011;27073;51.128;4.220;2023-02-18T13:39:08;12.35;;;2.33;;
41323;SDS011;27073;51.128;4.220;2023-02-18T13:41:43;8.63;;;2.70;;
41323;SDS011;27073;51.128;4.220;2023-02-18T13:46:48;12.48;;;2.88;;
41323;SDS011;27073;51.128;4.220;2023-02-18T13:49:25;11.15;;;2.70;;
41323;SDS011;27073;51.128;4.220;2023-02-18T13:51:58;10.10;;;2.83;;
41323;SDS011;27073;51.128;4.220;2023-02-18T13:54:44;8.00;;;2.28;;
41323;SDS011;27073;51.128;4.220;2023-02-18T13:57:12;10.30;;;2.38;;
41323;SDS011;27073;51.128;4.220;2023-02-18T14:04:53;13.73;;;3.47;;
41323;SDS011;27073;51.128;4.220;2023-02-18T14:10:30;9.07;;;2.78;;
41323;SDS011;27073;51.128;4.220;2023-02-18T14:20:33;13.98;;;2.78;;
41323;SDS011;27073;51.128;4.220;2023-02-18T14:28:42;11.40;;;2.92;;
41323;SDS011;27073;51.128;4.220;2023-02-18T14:44:57;12.27;;;3.00;;
41323;SDS011;27073;51.128;4.220;2023-02-18T14:50:36;12.88;;;3.03;;
41323;SDS011;27073;51.128;4.220;2023-02-18T14:53:06;14.38;;;4.10;;
41323;SDS011;27073;51.128;4.220;2023-02-18T14:55:42;9.13;;;3.35;;
41323;SDS011;27073;51.128;4.220;2023-02-18T14:58:15;8.75;;;2.75;;
41323;SDS011;27073;51.128;4.220;2023-02-18T15:03:18;12.63;;;3.58;;
41323;SDS011;27073;51.128;4.220;2023-02-18T15:05:46;9.77;;;3.88;;
41323;SDS011;27073;51.128;4.220;2023-02-18T15:10:44;11.50;;;3.58;;
41323;SDS011;27073;51.128;4.220;2023-02-18T15:15:51;10.18;;;3.40;;
41323;SDS011;27073;51.128;4.220;2023-02-18T15:18:20;9.55;;;3.45;;
41323;SDS011;27073;51.128;4.220;2023-02-18T15:20:52;10.52;;;3.35;;
41323;SDS011;27073;51.128;4.220;2023-02-18T15:23:18;11.60;;;4.88;;
41323;SDS011;27073;51.128;4.220;2023-02-18T15:25:48;7.00;;;2.67;;
41323;SDS011;27073;51.128;4.220;2023-02-18T15:28:27;10.32;;;3.78;;
41323;SDS011;27073;51.128;4.220;2023-02-18T15:30:55;8.63;;;2.88;;
41323;SDS011;27073;51.128;4.220;2023-02-18T15:33:25;9.52;;;4.50;;
41323;SDS011;27073;51.128;4.220;2023-02-18T15:35:51;12.55;;;4.75;;
41323;SDS011;27073;51.128;4.220;2023-02-18T15:38:30;14.50;;;4.35;;
41323;SDS011;27073;51.128;4.220;2023-02-18T15:40:56;10.38;;;4.03;;
41323;SDS011;27073;51.128;4.220;2023-02-18T15:43:24;11.07;;;4.82;;
41323;SDS011;27073;51.128;4.220;2023-02-18T15:45:52;15.98;;;4.82;;
41323;SDS011;27073;51.128;4.220;2023-02-18T15:50:55;11.35;;;3.45;;
41323;SDS011;27073;51.128;4.220;2023-02-18T15:53:26;12.15;;;4.78;;
41323;SDS011;27073;51.128;4.220;2023-02-18T15:55:52;11.98;;;4.50;;
41323;SDS011;27073;51.128;4.220;2023-02-18T15:58:29;12.73;;;4.55;;
41323;SDS011;27073;51.128;4.220;2023-02-18T16:00:58;11.73;;;4.70;;
41323;SDS011;27073;51.128;4.220;2023-02-18T16:03:28;14.27;;;4.90;;
41323;SDS011;27073;51.128;4.220;2023-02-18T16:06:18;13.90;;;5.63;;
41323;SDS011;27073;51.128;4.220;2023-02-18T16:11:37;11.93;;;5.55;;
41323;SDS011;27073;51.128;4.220;2023-02-18T16:14:05;11.32;;;4.07;;
41323;SDS011;27073;51.128;4.220;2023-02-18T16:16:32;9.02;;;4.30;;
41323;SDS011;27073;51.128;4.220;2023-02-18T16:19:00;10.38;;;4.47;;
41323;SDS011;27073;51.128;4.220;2023-02-18T16:24:01;11.93;;;4.22;;
41323;SDS011;27073;51.128;4.220;2023-02-18T16:26:41;8.02;;;3.88;;
41323;SDS011;27073;51.128;4.220;2023-02-18T16:29:43;15.23;;;5.10;;
41323;SDS011;27073;51.128;4.220;2023-02-18T16:32:05;9.52;;;3.65;;
41323;SDS011;27073;51.128;4.220;2023-02-18T16:34:31;14.48;;;4.07;;
41323;SDS011;27073;51.128;4.220;2023-02-18T16:36:57;12.32;;;4.05;;
41323;SDS011;27073;51.128;4.220;2023-02-18T16:39:42;11.20;;;3.90;;
41323;SDS011;27073;51.128;4.220;2023-02-18T16:42:11;13.35;;;4.32;;
41323;SDS011;27073;51.128;4.220;2023-02-18T16:44:37;11.48;;;4.82;;
41323;SDS011;27073;51.128;4.220;2023-02-18T16:47:04;11.55;;;4.00;;
41323;SDS011;27073;51.128;4.220;2023-02-18T16:49:30;11.75;;;4.57;;
41323;SDS011;27073;51.128;4.220;2023-02-18T16:51:57;12.63;;;5.47;;
41323;SDS011;27073;51.128;4.220;2023-02-18T16:54:25;12.77;;;4.20;;
41323;SDS011;27073;51.128;4.220;2023-02-18T16:56:52;30.27;;;8.45;;
41323;SDS011;27073;51.128;4.220;2023-02-18T16:59:18;9.77;;;4.75;;
41323;SDS011;27073;51.128;4.220;2023-02-18T17:01:44;10.55;;;5.10;;
41323;SDS011;27073;51.128;4.220;2023-02-18T17:04:12;12.73;;;5.22;;
41323;SDS011;27073;51.128;4.220;2023-02-18T17:06:40;13.10;;;5.53;;
41323;SDS011;27073;51.128;4.220;2023-02-18T17:09:14;11.65;;;4.93;;
41323;SDS011;27073;51.128;4.220;2023-02-18T17:11:45;10.73;;;4.95;;
41323;SDS011;27073;51.128;4.220;2023-02-18T17:14:18;11.93;;;5.85;;
41323;SDS011;27073;51.128;4.220;2023-02-18T17:16:46;10.70;;;5.22;;
41323;SDS011;27073;51.128;4.220;2023-02-18T17:19:13;9.70;;;5.25;;
41323;SDS011;27073;51.128;4.220;2023-02-18T17:21:39;13.27;;;7.10;;
41323;SDS011;27073;51.128;4.220;2023-02-18T17:24:06;10.55;;;6.13;;
41323;SDS011;27073;51.128;4.220;2023-02-18T17:26:40;10.43;;;6.50;;
41323;SDS011;27073;51.128;4.220;2023-02-18T17:29:06;13.52;;;7.00;;
41323;SDS011;27073;51.128;4.220;2023-02-18T17:31:34;12.40;;;7.63;;
41323;SDS011;27073;51.128;4.220;2023-02-18T17:34:04;13.95;;;8.63;;
41323;SDS011;27073;51.128;4.220;2023-02-18T17:36:36;15.98;;;8.07;;
41323;SDS011;27073;51.128;4.220;2023-02-18T17:39:07;14.60;;;8.32;;
41323;SDS011;27073;51.128;4.220;2023-02-18T17:41:38;16.08;;;7.93;;
41323;SDS011;27073;51.128;4.220;2023-02-18T17:44:17;12.65;;;8.20;;
41323;SDS011;27073;51.128;4.220;2023-02-18T17:46:44;11.15;;;7.95;;